Latest Weather Observations for Wagga Wagga

IDN60801

Issued at 8:52 am EST Wednesday 18 September 2019 (issued every 10 minutes, with the page automatically refreshed every 10 minutes)

About weather observations | Map of weather stations | Latest weather observations for NSW | Other Formats
Station Details ID: 072150 Name: WAGGA WAGGA AMO Lat: -35.16 Lon: 147.46 Height: 212.0 m
Data from the previous 72 hours. | See also: Recent months at Wagga Wagga
Date/Time
EST
Temp
°C
App
Temp
°C
Dew
Point
°C
Rel
Hum
%
Delta-T
°C
Wind Press
QNH
hPa
Press
MSL
hPa
Rain since
9am
mm
Dir  Spd
km/h
Gust
km/h
Spd
kts
Gust
kts
18/08:30am 10.3 7.4 4.7 68 2.5 E 9 13 5 7 1028.7 1028.9 0.0
18/08:00am 7.7 4.8 4.5 80 1.4 E 9 11 5 6 1028.8 1029.0 0.0
18/07:30am 6.6 4.1 4.6 87 0.9 ESE 7 9 4 5 1028.5 1028.7 0.0
18/07:00am 5.2 2.5 3.5 89 0.7 ESE 7 9 4 5 1028.3 1028.5 0.0
18/06:30am 4.4 1.3 3.5 94 0.4 E 9 11 5 6 1028.1 1028.3 0.0
18/06:00am 3.4 0.2 3.3 99 0.0 ESE 9 11 5 6 1027.8 1028.0 0.0
18/05:30am 2.5 -0.2 2.4 99 0.0 SSE 6 7 3 4 1027.7 1027.9 0.0
18/05:00am 2.5 0.9 2.4 99 0.0 CALM 0 0 0 0 1027.4 1027.6 0.0
18/04:30am 3.4 1.6 3.3 99 0.0 NE 2 7 1 4 1027.3 1027.5 0.0
18/04:00am 3.6 2.2 3.5 99 0.0 CALM 0 0 0 0 1027.0 1027.2 0.0
18/03:30am 3.3 1.5 3.2 99 0.0 S 2 6 1 3 1026.8 1026.9 0.0
18/03:00am 3.6 0.2 1.6 87 0.8 SE 9 11 5 6 1026.8 1026.9 0.0
18/02:30am 5.0 1.5 3.3 89 0.7 E 11 13 6 7 1026.8 1026.9 0.0
18/02:00am 4.8 1.2 3.1 89 0.7 SE 11 13 6 7 1027.0 1027.2 0.0
18/01:30am 6.1 2.3 4.1 87 0.9 SE 13 15 7 8 1027.3 1027.5 0.0
18/01:00am 5.3 1.6 4.3 93 0.4 SE 13 17 7 9 1027.5 1027.7 0.0
18/12:30am 6.6 3.8 5.1 90 0.7 ESE 9 11 5 6 1027.4 1027.6 0.0
18/12:00am 4.2 1.5 3.5 95 0.3 SE 7 7 4 4 1027.4 1027.6 0.0
 
Date/Time
EST
Temp
°C
App
Temp
°C
Dew
Point
°C
Rel
Hum
%
Delta-T
°C
Wind Press
QNH
hPa
Press
MSL
hPa
Rain since
9am
mm
Dir  Spd
km/h
Gust
km/h
Spd
kts
Gust
kts
17/11:30pm 4.3 1.9 2.0 85 0.9 SE 4 7 2 4 1027.4 1027.6 0.0
17/11:00pm 4.9 2.1 2.3 83 1.1 ENE 6 7 3 4 1027.2 1027.4 0.0
17/10:30pm 7.6 5.0 5.9 89 0.8 E 9 9 5 5 1027.1 1027.3 0.0
17/10:00pm 5.2 2.7 4.5 95 0.3 ESE 7 9 4 5 1027.1 1027.3 0.0
17/09:30pm 5.6 4.3 4.2 91 0.6 CALM 0 7 0 4 1026.7 1026.8 0.0
17/09:00pm 7.2 6.0 4.7 84 1.1 CALM 0 0 0 0 1026.4 1026.5 0.0
17/08:30pm 8.3 7.5 6.3 87 0.9 CALM 0 0 0 0 1026.1 1026.2 0.0
17/08:00pm 8.1 5.1 3.9 75 1.8 E 9 13 5 7 1025.8 1025.9 0.0
17/07:30pm 9.1 6.4 5.8 80 1.5 SE 9 11 5 6 1025.4 1025.5 0.0
17/07:00pm 12.4 10.1 5.6 63 3.2 NE 7 7 4 4 1024.8 1024.9 0.0
17/06:30pm 13.2 11.4 5.4 59 3.7 NE 4 7 2 4 1024.4 1024.5 0.0
17/06:00pm 13.9 11.6 5.0 55 4.2 NE 6 9 3 5 1023.9 1024.1 0.0
17/05:30pm 14.8 12.0 5.3 53 4.5 ENE 9 11 5 6 1023.6 1023.8 0.0
17/05:00pm 15.6 12.4 4.9 49 5.1 NE 11 15 6 8 1023.4 1023.6 0.0
17/04:30pm 16.0 13.2 5.0 48 5.3 ENE 9 15 5 8 1023.3 1023.5 0.0
17/04:00pm 15.8 12.6 3.3 43 5.7 ESE 9 17 5 9 1023.1 1023.3 0.0
17/03:30pm 16.1 12.5 3.2 42 6.0 ESE 11 17 6 9 1023.0 1023.2 0.0
17/03:00pm 16.4 14.0 4.4 45 5.7 SE 6 9 3 5 1022.9 1023.1 0.0
17/02:30pm 15.8 13.1 3.9 45 5.6 ESE 7 13 4 7 1022.8 1022.9 0.0
17/02:00pm 15.3 11.2 2.5 42 5.8 SE 13 20 7 11 1022.7 1022.8 0.0
17/01:30pm 15.1 10.8 3.3 45 5.4 SE 15 20 8 11 1022.7 1022.8 0.0
17/01:00pm 14.9 10.2 3.1 45 5.4 SE 17 26 9 14 1022.5 1022.6 0.0
17/12:30pm 14.6 10.0 3.7 48 5.0 SE 17 26 9 14 1022.5 1022.6 0.0
17/12:00pm 14.3 9.3 3.5 48 4.9 SE 19 26 10 14 1022.8 1022.9 0.0
17/11:30am 13.4 8.0 2.6 48 4.8 SE 20 30 11 16 1022.9 1023.1 0.0
17/11:00am 13.4 8.0 2.6 48 4.8 SSE 20 30 11 16 1022.8 1022.9 0.0
17/10:30am 12.7 7.4 1.7 47 4.8 SE 19 26 10 14 1022.8 1022.9 0.0
17/10:00am 12.6 7.2 2.7 51 4.4 SSE 20 28 11 15 1022.7 1022.8 0.0
17/09:30am 11.2 5.7 2.0 53 4.0 SSE 20 28 11 15 1022.5 1022.6 0.0
17/09:00am 10.1 4.4 2.7 60 3.2 SSE 22 30 12 16 1022.7 1022.8 5.2
17/08:30am 9.2 4.5 3.4 67 2.5 SSE 17 19 9 10 1022.5 1022.6 5.2
17/08:00am 8.6 4.7 3.2 69 2.3 SSE 13 17 7 9 1022.1 1022.2 5.2
17/07:30am 8.5 5.1 3.8 72 2.1 SSE 11 15 6 8 1021.7 1021.8 5.2
17/07:00am 7.9 4.4 3.6 74 1.9 SE 11 13 6 7 1021.3 1021.4 5.2
17/06:30am 7.7 3.9 3.9 77 1.7 SE 13 17 7 9 1020.9 1021.0 5.2
17/06:00am 7.6 3.9 4.6 81 1.3 ESE 13 15 7 8 1020.7 1020.8 5.2
17/05:30am 7.6 4.1 5.6 87 0.9 ESE 13 15 7 8 1020.4 1020.5 5.2
17/05:00am 7.9 4.6 6.5 91 0.6 SE 13 17 7 9 1020.3 1020.4 5.2
17/04:30am 7.8 5.1 7.5 98 0.1 ESE 11 15 6 8 1019.9 1020.0 5.2
17/04:00am 7.7 5.1 7.6 99 0.0 SE 11 13 6 7 1019.9 1020.0 5.2
17/03:30am 7.8 4.7 7.1 95 0.3 E 13 17 7 9 1019.7 1019.8 5.2
17/03:00am 8.1 4.2 7.0 93 0.5 ENE 17 22 9 12 1019.7 1019.8 5.2
17/02:42am 8.1 4.0 8.0 99 0.0 ENE 19 26 10 14 1019.6 1019.7 5.2
17/02:37am 8.0 4.3 8.0 100 0.0 ENE 17 24 9 13 1019.6 1019.7 5.2
17/02:30am 8.0 4.3 8.0 100 0.0 ENE 17 28 9 15 1019.6 1019.7 5.2
17/02:00am 8.0 5.8 8.0 100 0.0 ESE 9 9 5 5 1019.6 1019.7 4.8
17/01:30am 7.7 5.5 7.7 100 0.0 E 9 11 5 6 1019.6 1019.7 4.6
17/01:18am 7.6 5.3 7.6 100 0.0 SE 9 11 5 6 1019.4 1019.5 4.6
17/01:00am 6.6 5.8 6.6 100 0.0 CALM 0 0 0 0 1019.4 1019.5 4.6
17/12:52am 7.3 6.3 7.3 100 0.0 N 2 7 1 4 1019.5 1019.6 4.6
17/12:30am 7.8 5.6 7.8 100 0.0 NNE 9 9 5 5 1019.5 1019.6 4.6
17/12:21am 7.8 6.0 7.8 100 0.0 NE 7 9 4 5 1019.4 1019.5 4.6
17/12:00am 7.9 7.4 7.9 100 0.0 CALM 0 0 0 0 1019.4 1019.5 4.6
 
Date/Time
EST
Temp
°C
App
Temp
°C
Dew
Point
°C
Rel
Hum
%
Delta-T
°C
Wind Press
QNH
hPa
Press
MSL
hPa
Rain since
9am
mm
Dir  Spd
km/h
Gust
km/h
Spd
kts
Gust
kts
16/11:30pm 8.1 7.7 8.1 100 0.0 CALM 0 6 0 3 1019.6 1019.7 4.6
16/11:00pm 8.3 7.5 8.3 100 0.0 NW 2 7 1 4 1019.4 1019.5 4.6
16/10:30pm 8.1 7.7 8.1 100 0.0 CALM 0 0 0 0 1019.7 1019.8 4.6
16/10:24pm 8.0 7.5 8.0 100 0.0 CALM 0 0 0 0 1019.7 1019.8 4.6
16/10:02pm 8.0 5.8 8.0 100 0.0 SW 9 11 5 6 1019.6 1019.7 4.6
16/10:00pm 8.1 6.3 8.1 100 0.0 SW 7 11 4 6 1019.6 1019.7 4.6
16/09:30pm 8.3 6.2 8.3 100 0.0 W 9 11 5 6 1020.1 1020.2 4.6
16/09:12pm 8.4 6.3 8.4 100 0.0 WNW 9 11 5 6 1020.0 1020.1 4.6
16/09:00pm 8.3 6.2 8.3 100 0.0 WNW 9 11 5 6 1020.1 1020.2 4.6
16/08:30pm 8.4 5.9 8.4 100 0.0 WNW 11 13 6 7 1020.4 1020.5 4.4
16/08:00pm 8.4 5.9 8.4 100 0.0 W 11 15 6 8 1020.1 1020.2 4.0
16/07:30pm 8.4 5.6 8.4 100 0.0 WSW 13 19 7 10 1020.1 1020.2 3.6
16/07:00pm 8.8 5.3 8.8 100 0.0 WSW 17 22 9 12 1019.4 1019.5 3.0
16/06:30pm 9.4 6.8 9.4 100 0.0 WSW 13 17 7 9 1019.3 1019.4 1.8
16/06:00pm 10.3 7.2 10.3 100 0.0 SW 17 20 9 11 1018.5 1018.6 1.4
16/05:30pm 10.7 7.1 10.7 100 0.0 WSW 20 28 11 15 1018.7 1018.8 0.6
16/05:00pm 12.2 8.4 11.3 94 0.5 WSW 22 30 12 16 1018.4 1018.5 0.0
16/04:30pm 14.2 9.9 7.9 66 3.2 WSW 20 28 11 15 1017.8 1017.9 0.0
16/04:00pm 15.0 10.7 6.8 58 4.0 WSW 19 24 10 13 1017.2 1017.3 0.0
16/03:30pm 15.9 11.5 6.6 54 4.6 SW 19 26 10 14 1017.1 1017.2 0.0
16/03:00pm 16.7 12.1 6.5 51 5.1 WSW 20 32 11 17 1017.0 1017.1 0.0
16/02:30pm 17.2 11.6 7.0 51 5.1 SW 26 37 14 20 1016.9 1017.0 0.0
16/02:00pm 18.0 12.1 7.4 50 5.4 SW 28 37 15 20 1016.6 1016.7 0.0
16/01:30pm 20.0 13.5 8.0 46 6.3 SSW 32 41 17 22 1016.2 1016.3 0.0
16/01:00pm 18.7 12.8 7.5 48 5.7 SW 28 35 15 19 1016.8 1016.9 0.0
16/12:30pm 18.9 13.4 7.7 48 5.8 SSW 26 35 14 19 1016.5 1016.6 0.0
16/12:00pm 19.2 14.8 8.8 51 5.5 SW 22 32 12 17 1016.4 1016.5 0.0
16/11:30am 19.6 14.8 8.9 50 5.7 SSW 24 33 13 18 1016.7 1016.8 0.0
16/11:00am 20.6 14.7 8.9 47 6.2 S 30 39 16 21 1016.6 1016.7 0.0
16/10:30am 20.3 15.5 8.9 48 6.1 SSW 24 33 13 18 1016.6 1016.7 0.0
16/10:00am 18.6 16.9 5.8 43 6.3 SW 4 7 2 4 1016.6 1016.7 0.0
16/09:30am 17.1 14.4 5.7 47 5.6 WNW 9 13 5 7 1016.9 1017.0 0.0
16/09:00am 16.3 14.0 5.6 49 5.2 W 7 9 4 5 1016.6 1016.7 0.0
16/08:30am 14.9 12.3 6.0 55 4.3 ENE 9 15 5 8 1015.8 1015.9 0.0
16/08:00am 13.7 12.3 7.2 65 3.2 ENE 4 11 2 6 1015.8 1015.9 0.0
16/07:30am 12.4 10.5 7.5 72 2.4 NE 7 9 4 5 1016.0 1016.1 0.0
16/07:00am 11.4 10.9 7.9 79 1.7 CALM 0 6 0 3 1015.8 1015.9 0.0
16/06:30am 10.5 9.8 6.8 78 1.8 CALM 0 0 0 0 1015.0 1015.1 0.0
16/06:00am 12.8 10.4 5.2 60 3.6 ENE 7 13 4 7 1014.3 1014.3 0.0
16/05:30am 12.7 10.7 7.0 68 2.8 ESE 7 11 4 6 1014.0 1014.1 0.0
16/05:00am 10.7 8.8 7.6 81 1.5 SE 7 7 4 4 1014.2 1014.2 0.0
16/04:30am 10.0 8.1 7.6 85 1.2 S 7 11 4 6 1014.0 1014.1 0.0
16/04:00am 9.7 9.0 6.8 82 1.4 CALM 0 0 0 0 1014.3 1014.3 0.0
16/03:30am 10.8 10.0 6.6 75 2.0 CALM 0 0 0 0 1014.6 1014.6 0.0
16/03:00am 12.0 9.9 6.7 70 2.6 NE 7 9 4 5 1014.5 1014.5 0.0
16/02:30am 11.3 9.3 6.4 72 2.3 ESE 6 6 3 3 1015.4 1015.5 0.0
16/02:00am 12.7 10.7 6.3 65 3.1 NE 6 11 3 6 1015.9 1016.0 0.0
16/01:30am 14.6 11.2 5.9 56 4.2 ENE 13 17 7 9 1016.4 1016.5 0.0
16/01:00am 14.8 11.1 6.1 56 4.2 ENE 15 17 8 9 1016.7 1016.8 0.0
16/12:30am 13.4 11.7 7.4 67 3.0 S 6 13 3 7 1017.5 1017.6 0.0
16/12:00am 15.3 13.1 6.1 54 4.5 E 7 9 4 5 1017.6 1017.7 0.0
 
Date/Time
EST
Temp
°C
App
Temp
°C
Dew
Point
°C
Rel
Hum
%
Delta-T
°C
Wind Press
QNH
hPa
Press
MSL
hPa
Rain since
9am
mm
Dir  Spd
km/h
Gust
km/h
Spd
kts
Gust
kts
15/11:30pm 15.6 12.1 5.5 51 4.9 ESE 13 19 7 10 1017.5 1017.6 0.0
15/11:00pm 15.1 11.3 5.9 54 4.4 SSW 15 19 8 10 1018.1 1018.2 0.0
15/10:30pm 14.2 10.8 6.1 58 3.9 SSW 13 17 7 9 1017.7 1017.8 0.0
15/10:00pm 13.5 12.9 7.3 66 3.1 CALM 0 0 0 0 1017.7 1017.8 0.0
15/09:30pm 16.2 13.0 5.2 48 5.3 NE 11 13 6 7 1017.6 1017.7 0.0
15/09:00pm 15.9 14.4 5.2 49 5.1 ENE 2 7 1 4 1018.4 1018.5 0.0
15/08:30pm 16.7 13.4 4.4 44 5.8 ENE 11 13 6 7 1018.6 1018.7 0.0
15/08:00pm 16.2 13.3 4.9 47 5.4 E 9 9 5 5 1018.8 1018.9 0.0
15/07:30pm 16.4 13.8 6.0 50 5.1 E 9 11 5 6 1018.8 1018.9 0.0
15/07:00pm 17.9 15.0 4.5 41 6.4 NE 9 11 5 6 1018.8 1018.9 0.0
15/06:30pm 17.5 14.9 6.1 47 5.6 ENE 9 11 5 6 1018.7 1018.8 0.0
15/06:00pm 19.1 17.0 6.6 44 6.3 E 7 7 4 4 1018.9 1019.1 0.0
15/05:30pm 20.3 18.2 6.6 41 7.0 E 7 9 4 5 1018.9 1019.1 0.0
15/05:00pm 21.4 18.6 3.1 30 8.8 ENE 7 9 4 5 1018.8 1018.9 0.0
15/04:30pm 21.9 19.2 2.6 28 9.2 NE 6 9 3 5 1018.8 1018.9 0.0
15/04:00pm 21.9 19.0 2.6 28 9.2 N 7 13 4 7 1018.8 1018.9 0.0
15/03:30pm 22.2 18.4 3.8 30 9.0 NNE 13 20 7 11 1018.6 1018.7 0.0
15/03:00pm 21.1 17.0 4.2 33 8.2 NNE 15 20 8 11 1019.1 1019.2 0.0
15/02:30pm 21.2 16.9 3.4 31 8.6 NNE 15 19 8 10 1019.8 1019.9 0.0
15/02:00pm 20.6 18.0 3.3 32 8.3 N 6 13 3 7 1020.7 1020.8 0.0
15/01:30pm 20.0 17.2 3.3 33 8.0 WSW 7 9 4 5 1021.4 1021.5 0.0
15/01:00pm 19.4 16.6 3.2 34 7.6 SSW 7 13 4 7 1022.2 1022.3 0.0
15/12:30pm 19.1 15.9 5.2 40 6.8 SSE 11 11 6 6 1022.6 1022.7 0.0
15/12:00pm 18.8 16.7 5.6 42 6.5 SSE 6 9 3 5 1022.9 1023.1 0.0
15/11:30am 18.2 15.6 6.1 45 6.0 WSW 9 15 5 8 1023.3 1023.5 0.0
15/11:00am 17.5 15.5 7.3 51 5.1 NNW 7 9 4 5 1023.0 1023.2 0.0
15/10:30am 15.9 13.9 6.9 55 4.5 NE 7 9 4 5 1023.3 1023.5 0.0
15/10:00am 14.7 11.9 6.8 59 3.9 NE 11 15 6 8 1023.6 1023.8 0.0
15/09:30am 12.8 9.6 6.8 67 2.9 ENE 13 17 7 9 1024.3 1024.4 0.0
15/09:00am 11.1 7.7 6.0 71 2.4 ENE 13 15 7 8 1024.7 1024.8 0.0

Other formats

Comma delimited format used in spreadsheet applications
http://www.bom.gov.au/fwo/IDN60801/IDN60801.94910.axf

JavaScript Object Notation format (JSON) in row-major order
http://www.bom.gov.au/fwo/IDN60801/IDN60801.94910.json

Data quality

Most of these data are generated automatically and are frequently updated. Quality checks on data are not normally performed. It is possible for incorrect values to appear. Refer to information at About Latest Weather Observations and please check the disclaimer before using these data.